sensor_id;sensor_type;location;lat;lon;timestamp;temperature;humidity
9049;DHT22;4559;47.252;9.592;2022-07-22T00:00:26;21.80;99.90
9049;DHT22;4559;47.252;9.592;2022-07-22T00:02:52;21.80;99.90
9049;DHT22;4559;47.252;9.592;2022-07-22T00:05:18;21.70;99.90
9049;DHT22;4559;47.252;9.592;2022-07-22T00:07:43;21.70;99.90
9049;DHT22;4559;47.252;9.592;2022-07-22T00:10:10;21.70;99.90
9049;DHT22;4559;47.252;9.592;2022-07-22T00:12:36;21.60;99.90
9049;DHT22;4559;47.252;9.592;2022-07-22T00:15:03;21.60;99.90
9049;DHT22;4559;47.252;9.592;2022-07-22T00:17:29;21.60;99.90
9049;DHT22;4559;47.252;9.592;2022-07-22T00:19:54;21.60;99.90
9049;DHT22;4559;47.252;9.592;2022-07-22T00:22:20;21.60;99.90
9049;DHT22;4559;47.252;9.592;2022-07-22T00:24:46;21.50;99.90
9049;DHT22;4559;47.252;9.592;2022-07-22T00:27:11;21.50;99.90
9049;DHT22;4559;47.252;9.592;2022-07-22T00:29:37;21.50;99.90
9049;DHT22;4559;47.252;9.592;2022-07-22T00:32:03;21.50;99.90
9049;DHT22;4559;47.252;9.592;2022-07-22T00:34:28;21.50;99.90
9049;DHT22;4559;47.252;9.592;2022-07-22T00:36:54;21.50;99.90
9049;DHT22;4559;47.252;9.592;2022-07-22T00:39:20;21.40;99.90
9049;DHT22;4559;47.252;9.592;2022-07-22T00:41:47;21.40;99.90
9049;DHT22;4559;47.252;9.592;2022-07-22T00:44:13;21.40;99.90
9049;DHT22;4559;47.252;9.592;2022-07-22T00:46:38;21.40;99.90
9049;DHT22;4559;47.252;9.592;2022-07-22T00:49:05;21.30;99.90
9049;DHT22;4559;47.252;9.592;2022-07-22T00:51:31;21.30;99.90
9049;DHT22;4559;47.252;9.592;2022-07-22T00:53:57;21.30;99.90
9049;DHT22;4559;47.252;9.592;2022-07-22T00:56:24;21.30;99.90
9049;DHT22;4559;47.252;9.592;2022-07-22T00:58:51;21.30;99.90
9049;DHT22;4559;47.252;9.592;2022-07-22T01:01:18;21.30;99.90
9049;DHT22;4559;47.252;9.592;2022-07-22T01:03:44;21.20;99.90
9049;DHT22;4559;47.252;9.592;2022-07-22T01:06:10;21.20;99.90
9049;DHT22;4559;47.252;9.592;2022-07-22T01:08:38;21.20;99.90
9049;DHT22;4559;47.252;9.592;2022-07-22T01:11:15;21.10;99.90
9049;DHT22;4559;47.252;9.592;2022-07-22T01:13:42;21.10;99.90
9049;DHT22;4559;47.252;9.592;2022-07-22T01:16:10;21.10;99.90
9049;DHT22;4559;47.252;9.592;2022-07-22T01:18:36;21.00;99.90
9049;DHT22;4559;47.252;9.592;2022-07-22T01:21:04;21.00;99.90
9049;DHT22;4559;47.252;9.592;2022-07-22T01:23:29;21.00;99.90
9049;DHT22;4559;47.252;9.592;2022-07-22T01:25:55;21.00;99.90
9049;DHT22;4559;47.252;9.592;2022-07-22T01:28:21;21.00;99.90
9049;DHT22;4559;47.252;9.592;2022-07-22T01:30:47;20.90;99.90
9049;DHT22;4559;47.252;9.592;2022-07-22T01:33:16;20.90;99.90
9049;DHT22;4559;47.252;9.592;2022-07-22T01:35:41;20.90;99.90
9049;DHT22;4559;47.252;9.592;2022-07-22T01:38:07;20.90;99.90
9049;DHT22;4559;47.252;9.592;2022-07-22T01:40:33;20.90;99.90
9049;DHT22;4559;47.252;9.592;2022-07-22T01:42:58;20.90;99.90
9049;DHT22;4559;47.252;9.592;2022-07-22T01:45:24;20.90;99.90
9049;DHT22;4559;47.252;9.592;2022-07-22T01:47:50;20.80;99.90
9049;DHT22;4559;47.252;9.592;2022-07-22T01:50:15;20.80;99.90
9049;DHT22;4559;47.252;9.592;2022-07-22T01:52:41;20.80;99.90
9049;DHT22;4559;47.252;9.592;2022-07-22T01:55:07;20.80;99.90
9049;DHT22;4559;47.252;9.592;2022-07-22T01:57:33;20.80;99.90
9049;DHT22;4559;47.252;9.592;2022-07-22T02:00:00;20.80;99.90
9049;DHT22;4559;47.252;9.592;2022-07-22T02:02:26;20.80;99.90
9049;DHT22;4559;47.252;9.592;2022-07-22T02:04:51;20.80;99.90
9049;DHT22;4559;47.252;9.592;2022-07-22T02:07:17;20.80;99.90
9049;DHT22;4559;47.252;9.592;2022-07-22T02:09:43;20.80;99.90
9049;DHT22;4559;47.252;9.592;2022-07-22T02:12:08;20.80;99.90
9049;DHT22;4559;47.252;9.592;2022-07-22T02:14:34;20.80;99.90
9049;DHT22;4559;47.252;9.592;2022-07-22T02:16:59;20.80;99.90
9049;DHT22;4559;47.252;9.592;2022-07-22T02:19:25;20.80;99.90
9049;DHT22;4559;47.252;9.592;2022-07-22T02:21:51;20.80;99.90
9049;DHT22;4559;47.252;9.592;2022-07-22T02:24:16;20.70;99.90
9049;DHT22;4559;47.252;9.592;2022-07-22T02:26:42;20.70;99.90
9049;DHT22;4559;47.252;9.592;2022-07-22T02:29:08;20.70;99.90
9049;DHT22;4559;47.252;9.592;2022-07-22T02:31:33;20.70;99.90
9049;DHT22;4559;47.252;9.592;2022-07-22T02:33:59;20.70;99.90
9049;DHT22;4559;47.252;9.592;2022-07-22T02:36:25;20.60;99.90
9049;DHT22;4559;47.252;9.592;2022-07-22T02:38:50;20.60;99.90
9049;DHT22;4559;47.252;9.592;2022-07-22T02:41:16;20.50;99.90
9049;DHT22;4559;47.252;9.592;2022-07-22T02:43:41;20.60;99.90
9049;DHT22;4559;47.252;9.592;2022-07-22T02:46:07;20.60;99.90
9049;DHT22;4559;47.252;9.592;2022-07-22T02:48:33;20.60;99.90
9049;DHT22;4559;47.252;9.592;2022-07-22T02:50:59;20.60;99.90
9049;DHT22;4559;47.252;9.592;2022-07-22T02:53:25;20.60;99.90
9049;DHT22;4559;47.252;9.592;2022-07-22T02:55:50;20.60;99.90
9049;DHT22;4559;47.252;9.592;2022-07-22T02:58:16;20.60;99.90
9049;DHT22;4559;47.252;9.592;2022-07-22T03:00:41;20.60;99.90
9049;DHT22;4559;47.252;9.592;2022-07-22T03:03:07;20.60;99.90
9049;DHT22;4559;47.252;9.592;2022-07-22T03:05:33;20.60;99.90
9049;DHT22;4559;47.252;9.592;2022-07-22T03:07:58;20.50;99.90
9049;DHT22;4559;47.252;9.592;2022-07-22T03:10:24;20.50;99.90
9049;DHT22;4559;47.252;9.592;2022-07-22T03:12:49;20.50;99.90
9049;DHT22;4559;47.252;9.592;2022-07-22T03:15:15;20.50;99.90
9049;DHT22;4559;47.252;9.592;2022-07-22T03:17:41;20.50;99.90
9049;DHT22;4559;47.252;9.592;2022-07-22T03:20:08;20.60;99.90
9049;DHT22;4559;47.252;9.592;2022-07-22T03:22:35;20.50;99.90
9049;DHT22;4559;47.252;9.592;2022-07-22T03:25:01;20.50;99.90
9049;DHT22;4559;47.252;9.592;2022-07-22T03:27:27;20.50;99.90
9049;DHT22;4559;47.252;9.592;2022-07-22T03:29:52;20.50;99.90
9049;DHT22;4559;47.252;9.592;2022-07-22T03:32:18;20.40;99.90
9049;DHT22;4559;47.252;9.592;2022-07-22T03:34:44;20.40;99.90
9049;DHT22;4559;47.252;9.592;2022-07-22T03:37:10;20.30;99.90
9049;DHT22;4559;47.252;9.592;2022-07-22T03:39:36;20.30;99.90
9049;DHT22;4559;47.252;9.592;2022-07-22T03:42:02;20.30;99.90
9049;DHT22;4559;47.252;9.592;2022-07-22T03:44:27;20.30;99.90
9049;DHT22;4559;47.252;9.592;2022-07-22T03:46:53;20.30;99.90
9049;DHT22;4559;47.252;9.592;2022-07-22T03:49:19;20.30;99.90
9049;DHT22;4559;47.252;9.592;2022-07-22T03:51:44;20.20;99.90
9049;DHT22;4559;47.252;9.592;2022-07-22T03:54:10;20.20;99.90
9049;DHT22;4559;47.252;9.592;2022-07-22T03:56:35;20.20;99.90
9049;DHT22;4559;47.252;9.592;2022-07-22T03:59:01;20.20;99.90
9049;DHT22;4559;47.252;9.592;2022-07-22T04:01:27;20.20;99.90
9049;DHT22;4559;47.252;9.592;2022-07-22T04:03:52;20.20;99.90
9049;DHT22;4559;47.252;9.592;2022-07-22T04:06:18;20.20;99.90
9049;DHT22;4559;47.252;9.592;2022-07-22T04:08:43;20.20;99.90
9049;DHT22;4559;47.252;9.592;2022-07-22T04:11:09;20.20;99.90
9049;DHT22;4559;47.252;9.592;2022-07-22T04:13:35;20.20;99.90
9049;DHT22;4559;47.252;9.592;2022-07-22T04:16:00;20.10;99.90
9049;DHT22;4559;47.252;9.592;2022-07-22T04:18:26;20.10;99.90
9049;DHT22;4559;47.252;9.592;2022-07-22T04:20:52;20.10;99.90
9049;DHT22;4559;47.252;9.592;2022-07-22T04:23:17;20.10;99.90
9049;DHT22;4559;47.252;9.592;2022-07-22T04:25:43;20.10;99.90
9049;DHT22;4559;47.252;9.592;2022-07-22T04:28:09;20.10;99.90
9049;DHT22;4559;47.252;9.592;2022-07-22T04:30:35;20.00;99.90
9049;DHT22;4559;47.252;9.592;2022-07-22T04:33:00;20.00;99.90
9049;DHT22;4559;47.252;9.592;2022-07-22T04:35:26;20.00;99.90
9049;DHT22;4559;47.252;9.592;2022-07-22T04:37:51;20.10;99.90
9049;DHT22;4559;47.252;9.592;2022-07-22T04:40:17;20.10;99.90
9049;DHT22;4559;47.252;9.592;2022-07-22T04:42:43;20.10;99.90
9049;DHT22;4559;47.252;9.592;2022-07-22T04:45:09;20.10;99.90
9049;DHT22;4559;47.252;9.592;2022-07-22T04:47:34;20.20;99.90
9049;DHT22;4559;47.252;9.592;2022-07-22T04:50:00;20.20;99.90
9049;DHT22;4559;47.252;9.592;2022-07-22T04:52:25;20.30;99.90
9049;DHT22;4559;47.252;9.592;2022-07-22T04:54:51;20.30;99.90
9049;DHT22;4559;47.252;9.592;2022-07-22T04:57:17;20.30;99.90
9049;DHT22;4559;47.252;9.592;2022-07-22T04:59:42;20.30;99.90
9049;DHT22;4559;47.252;9.592;2022-07-22T05:02:08;20.30;99.90
9049;DHT22;4559;47.252;9.592;2022-07-22T05:04:34;20.30;99.90
9049;DHT22;4559;47.252;9.592;2022-07-22T05:06:59;20.40;99.90
9049;DHT22;4559;47.252;9.592;2022-07-22T05:09:25;20.40;99.90
9049;DHT22;4559;47.252;9.592;2022-07-22T05:11:51;20.50;99.90
9049;DHT22;4559;47.252;9.592;2022-07-22T05:14:16;20.50;99.90
9049;DHT22;4559;47.252;9.592;2022-07-22T05:16:42;20.60;99.90
9049;DHT22;4559;47.252;9.592;2022-07-22T05:19:08;20.60;99.90
9049;DHT22;4559;47.252;9.592;2022-07-22T05:21:33;20.60;99.90
9049;DHT22;4559;47.252;9.592;2022-07-22T05:23:59;20.60;99.90
9049;DHT22;4559;47.252;9.592;2022-07-22T05:26:25;20.70;99.90
9049;DHT22;4559;47.252;9.592;2022-07-22T05:28:54;20.80;99.90
9049;DHT22;4559;47.252;9.592;2022-07-22T05:31:19;20.80;99.90
9049;DHT22;4559;47.252;9.592;2022-07-22T05:33:45;20.90;99.90
9049;DHT22;4559;47.252;9.592;2022-07-22T05:36:10;20.90;99.90
9049;DHT22;4559;47.252;9.592;2022-07-22T05:38:36;21.00;99.90
9049;DHT22;4559;47.252;9.592;2022-07-22T05:41:02;21.00;99.90
9049;DHT22;4559;47.252;9.592;2022-07-22T05:43:28;21.00;99.90
9049;DHT22;4559;47.252;9.592;2022-07-22T05:45:54;21.00;99.90
9049;DHT22;4559;47.252;9.592;2022-07-22T05:48:19;21.10;99.90
9049;DHT22;4559;47.252;9.592;2022-07-22T05:50:45;21.10;99.90
9049;DHT22;4559;47.252;9.592;2022-07-22T05:53:11;21.20;99.90
9049;DHT22;4559;47.252;9.592;2022-07-22T05:55:36;21.20;99.90
9049;DHT22;4559;47.252;9.592;2022-07-22T05:58:02;21.30;99.90
9049;DHT22;4559;47.252;9.592;2022-07-22T06:00:28;21.40;99.90
9049;DHT22;4559;47.252;9.592;2022-07-22T06:02:53;21.50;99.90
9049;DHT22;4559;47.252;9.592;2022-07-22T06:05:19;21.60;99.90
9049;DHT22;4559;47.252;9.592;2022-07-22T06:07:45;21.70;99.90
9049;DHT22;4559;47.252;9.592;2022-07-22T06:10:11;21.70;99.90
9049;DHT22;4559;47.252;9.592;2022-07-22T06:12:37;21.80;99.90
9049;DHT22;4559;47.252;9.592;2022-07-22T06:15:03;21.90;99.90
9049;DHT22;4559;47.252;9.592;2022-07-22T06:17:28;22.00;99.90
9049;DHT22;4559;47.252;9.592;2022-07-22T06:19:54;22.10;99.90
9049;DHT22;4559;47.252;9.592;2022-07-22T06:22:20;22.10;99.90
9049;DHT22;4559;47.252;9.592;2022-07-22T06:24:45;22.20;99.90
9049;DHT22;4559;47.252;9.592;2022-07-22T06:27:11;22.30;99.90
9049;DHT22;4559;47.252;9.592;2022-07-22T06:29:37;22.40;99.90
9049;DHT22;4559;47.252;9.592;2022-07-22T06:32:03;22.40;99.90
9049;DHT22;4559;47.252;9.592;2022-07-22T06:34:28;22.50;99.90
9049;DHT22;4559;47.252;9.592;2022-07-22T06:36:55;22.70;99.90
9049;DHT22;4559;47.252;9.592;2022-07-22T06:39:20;22.80;99.90
9049;DHT22;4559;47.252;9.592;2022-07-22T06:41:46;22.90;99.90
9049;DHT22;4559;47.252;9.592;2022-07-22T06:44:12;23.00;99.90
9049;DHT22;4559;47.252;9.592;2022-07-22T06:46:38;23.10;99.90
9049;DHT22;4559;47.252;9.592;2022-07-22T06:49:04;23.20;99.90
9049;DHT22;4559;47.252;9.592;2022-07-22T06:51:30;23.30;99.90
9049;DHT22;4559;47.252;9.592;2022-07-22T06:53:55;23.40;99.90
9049;DHT22;4559;47.252;9.592;2022-07-22T06:56:21;23.50;99.90
9049;DHT22;4559;47.252;9.592;2022-07-22T06:58:47;23.60;99.90
9049;DHT22;4559;47.252;9.592;2022-07-22T07:01:12;23.70;99.90
9049;DHT22;4559;47.252;9.592;2022-07-22T07:03:38;23.90;99.90
9049;DHT22;4559;47.252;9.592;2022-07-22T07:06:07;24.00;99.90
9049;DHT22;4559;47.252;9.592;2022-07-22T07:08:33;24.10;99.90
9049;DHT22;4559;47.252;9.592;2022-07-22T07:10:58;24.20;99.90
9049;DHT22;4559;47.252;9.592;2022-07-22T07:13:24;24.40;99.90
9049;DHT22;4559;47.252;9.592;2022-07-22T07:15:50;24.50;99.90
9049;DHT22;4559;47.252;9.592;2022-07-22T07:18:15;24.60;99.90
9049;DHT22;4559;47.252;9.592;2022-07-22T07:20:41;24.70;99.90
9049;DHT22;4559;47.252;9.592;2022-07-22T07:23:07;24.80;99.90
9049;DHT22;4559;47.252;9.592;2022-07-22T07:25:32;24.90;99.90
9049;DHT22;4559;47.252;9.592;2022-07-22T07:27:58;25.10;99.90
9049;DHT22;4559;47.252;9.592;2022-07-22T07:30:23;25.20;99.90
9049;DHT22;4559;47.252;9.592;2022-07-22T07:32:49;25.30;99.90
9049;DHT22;4559;47.252;9.592;2022-07-22T07:35:15;25.40;99.90
9049;DHT22;4559;47.252;9.592;2022-07-22T07:37:40;25.50;99.90
9049;DHT22;4559;47.252;9.592;2022-07-22T07:40:06;25.60;99.90
9049;DHT22;4559;47.252;9.592;2022-07-22T07:42:33;25.70;99.90
9049;DHT22;4559;47.252;9.592;2022-07-22T07:44:58;25.80;99.90
9049;DHT22;4559;47.252;9.592;2022-07-22T07:47:24;26.00;99.90
9049;DHT22;4559;47.252;9.592;2022-07-22T07:49:49;26.10;99.90
9049;DHT22;4559;47.252;9.592;2022-07-22T07:52:16;26.30;99.90
9049;DHT22;4559;47.252;9.592;2022-07-22T07:54:42;26.50;99.90
9049;DHT22;4559;47.252;9.592;2022-07-22T07:57:09;26.60;99.90
9049;DHT22;4559;47.252;9.592;2022-07-22T07:59:39;26.70;99.90
9049;DHT22;4559;47.252;9.592;2022-07-22T08:02:06;26.90;99.90
9049;DHT22;4559;47.252;9.592;2022-07-22T08:04:32;27.00;99.90
9049;DHT22;4559;47.252;9.592;2022-07-22T08:06:59;27.10;99.90
9049;DHT22;4559;47.252;9.592;2022-07-22T08:09:25;27.20;99.90
9049;DHT22;4559;47.252;9.592;2022-07-22T08:11:51;27.30;99.90
9049;DHT22;4559;47.252;9.592;2022-07-22T08:14:17;27.30;99.90
9049;DHT22;4559;47.252;9.592;2022-07-22T08:16:43;27.40;99.90
9049;DHT22;4559;47.252;9.592;2022-07-22T08:19:09;27.50;99.90
9049;DHT22;4559;47.252;9.592;2022-07-22T08:21:34;27.60;99.90
9049;DHT22;4559;47.252;9.592;2022-07-22T08:24:00;27.80;99.90
9049;DHT22;4559;47.252;9.592;2022-07-22T08:26:26;27.90;99.90
9049;DHT22;4559;47.252;9.592;2022-07-22T08:28:52;28.00;99.90
9049;DHT22;4559;47.252;9.592;2022-07-22T08:31:18;28.20;99.90
9049;DHT22;4559;47.252;9.592;2022-07-22T08:33:43;28.30;99.90
9049;DHT22;4559;47.252;9.592;2022-07-22T08:36:09;28.40;99.50
9049;DHT22;4559;47.252;9.592;2022-07-22T08:38:35;28.50;99.30
9049;DHT22;4559;47.252;9.592;2022-07-22T08:41:02;28.60;99.20
9049;DHT22;4559;47.252;9.592;2022-07-22T08:43:30;28.70;98.60
9049;DHT22;4559;47.252;9.592;2022-07-22T08:45:56;28.80;98.60
9049;DHT22;4559;47.252;9.592;2022-07-22T08:48:22;28.90;98.10
9049;DHT22;4559;47.252;9.592;2022-07-22T08:50:48;29.00;97.30
9049;DHT22;4559;47.252;9.592;2022-07-22T08:53:14;29.00;96.90
9049;DHT22;4559;47.252;9.592;2022-07-22T08:55:44;29.20;97.90
9049;DHT22;4559;47.252;9.592;2022-07-22T08:58:10;29.30;97.50
9049;DHT22;4559;47.252;9.592;2022-07-22T09:00:37;29.40;96.70
9049;DHT22;4559;47.252;9.592;2022-07-22T09:05:42;29.50;96.00
9049;DHT22;4559;47.252;9.592;2022-07-22T09:08:08;29.60;95.10
9049;DHT22;4559;47.252;9.592;2022-07-22T09:10:34;29.70;94.50
9049;DHT22;4559;47.252;9.592;2022-07-22T09:13:05;29.80;94.80
9049;DHT22;4559;47.252;9.592;2022-07-22T09:15:49;29.90;94.80
9049;DHT22;4559;47.252;9.592;2022-07-22T09:18:15;30.10;94.10
9049;DHT22;4559;47.252;9.592;2022-07-22T09:20:41;30.20;93.70
9049;DHT22;4559;47.252;9.592;2022-07-22T09:23:15;30.30;93.20
9049;DHT22;4559;47.252;9.592;2022-07-22T09:25:42;30.40;93.90
9049;DHT22;4559;47.252;9.592;2022-07-22T09:30:39;30.50;93.40
9049;DHT22;4559;47.252;9.592;2022-07-22T09:33:06;30.50;92.80
9049;DHT22;4559;47.252;9.592;2022-07-22T09:35:32;30.70;93.40
9049;DHT22;4559;47.252;9.592;2022-07-22T09:38:01;30.80;92.10
9049;DHT22;4559;47.252;9.592;2022-07-22T09:40:27;30.80;92.10
9049;DHT22;4559;47.252;9.592;2022-07-22T09:42:55;30.90;92.10
9049;DHT22;4559;47.252;9.592;2022-07-22T09:45:23;31.00;91.70
9049;DHT22;4559;47.252;9.592;2022-07-22T09:47:49;31.00;92.10
9049;DHT22;4559;47.252;9.592;2022-07-22T09:50:22;31.10;91.80
9049;DHT22;4559;47.252;9.592;2022-07-22T09:52:50;31.20;92.20
9049;DHT22;4559;47.252;9.592;2022-07-22T09:55:18;31.30;91.90
9049;DHT22;4559;47.252;9.592;2022-07-22T09:57:45;31.40;91.90
9049;DHT22;4559;47.252;9.592;2022-07-22T10:00:11;31.50;91.60
9049;DHT22;4559;47.252;9.592;2022-07-22T10:02:51;31.70;91.40
9049;DHT22;4559;47.252;9.592;2022-07-22T10:05:20;31.80;90.50
9049;DHT22;4559;47.252;9.592;2022-07-22T10:07:46;31.90;89.90
9049;DHT22;4559;47.252;9.592;2022-07-22T10:10:17;31.90;90.30
9049;DHT22;4559;47.252;9.592;2022-07-22T10:12:45;32.00;90.40
9049;DHT22;4559;47.252;9.592;2022-07-22T10:15:12;32.10;89.90
9049;DHT22;4559;47.252;9.592;2022-07-22T10:17:41;32.10;89.90
9049;DHT22;4559;47.252;9.592;2022-07-22T10:20:09;32.20;90.40
9049;DHT22;4559;47.252;9.592;2022-07-22T10:25:12;32.30;87.30
9049;DHT22;4559;47.252;9.592;2022-07-22T10:30:19;32.40;85.90
9049;DHT22;4559;47.252;9.592;2022-07-22T10:32:45;32.50;84.40
9049;DHT22;4559;47.252;9.592;2022-07-22T10:37:41;32.70;79.90
9049;DHT22;4559;47.252;9.592;2022-07-22T10:40:26;32.80;81.70
9049;DHT22;4559;47.252;9.592;2022-07-22T10:43:05;32.80;79.90
9049;DHT22;4559;47.252;9.592;2022-07-22T10:45:34;32.90;80.10
9049;DHT22;4559;47.252;9.592;2022-07-22T10:48:05;33.00;79.10
9049;DHT22;4559;47.252;9.592;2022-07-22T10:55:34;33.30;78.00
9049;DHT22;4559;47.252;9.592;2022-07-22T10:58:06;33.30;79.30
9049;DHT22;4559;47.252;9.592;2022-07-22T11:00:46;33.40;80.40
9049;DHT22;4559;47.252;9.592;2022-07-22T11:03:12;33.40;79.10
9049;DHT22;4559;47.252;9.592;2022-07-22T11:05:37;33.40;79.50
9049;DHT22;4559;47.252;9.592;2022-07-22T11:08:08;33.40;78.10
9049;DHT22;4559;47.252;9.592;2022-07-22T11:10:34;33.40;78.20
9049;DHT22;4559;47.252;9.592;2022-07-22T11:13:00;33.40;79.30
9049;DHT22;4559;47.252;9.592;2022-07-22T11:15:26;33.50;80.40
9049;DHT22;4559;47.252;9.592;2022-07-22T11:17:56;33.50;81.00
9049;DHT22;4559;47.252;9.592;2022-07-22T11:20:21;33.50;79.80
9049;DHT22;4559;47.252;9.592;2022-07-22T11:22:47;33.50;79.30
9049;DHT22;4559;47.252;9.592;2022-07-22T11:25:14;33.60;80.00
9049;DHT22;4559;47.252;9.592;2022-07-22T11:27:39;33.60;80.70
9049;DHT22;4559;47.252;9.592;2022-07-22T11:30:14;33.60;79.10
9049;DHT22;4559;47.252;9.592;2022-07-22T11:32:43;33.70;78.10
9049;DHT22;4559;47.252;9.592;2022-07-22T11:35:12;33.70;78.00
9049;DHT22;4559;47.252;9.592;2022-07-22T11:37:38;33.70;78.00
9049;DHT22;4559;47.252;9.592;2022-07-22T11:40:07;33.80;77.20
9049;DHT22;4559;47.252;9.592;2022-07-22T11:42:33;33.80;79.10
9049;DHT22;4559;47.252;9.592;2022-07-22T11:44:59;33.90;79.10
9049;DHT22;4559;47.252;9.592;2022-07-22T11:47:25;34.00;77.80
9049;DHT22;4559;47.252;9.592;2022-07-22T11:49:50;34.00;75.00
9049;DHT22;4559;47.252;9.592;2022-07-22T11:52:17;34.00;76.40
9049;DHT22;4559;47.252;9.592;2022-07-22T11:54:44;34.10;77.20
9049;DHT22;4559;47.252;9.592;2022-07-22T11:57:11;34.10;77.10
9049;DHT22;4559;47.252;9.592;2022-07-22T11:59:37;34.20;75.20
9049;DHT22;4559;47.252;9.592;2022-07-22T12:02:06;34.20;74.50
9049;DHT22;4559;47.252;9.592;2022-07-22T12:04:33;34.30;75.60
9049;DHT22;4559;47.252;9.592;2022-07-22T12:07:01;34.30;74.20
9049;DHT22;4559;47.252;9.592;2022-07-22T12:09:31;34.40;75.20
9049;DHT22;4559;47.252;9.592;2022-07-22T12:11:58;34.40;76.00
9049;DHT22;4559;47.252;9.592;2022-07-22T12:14:26;34.40;74.80
9049;DHT22;4559;47.252;9.592;2022-07-22T12:19:27;34.50;74.80
9049;DHT22;4559;47.252;9.592;2022-07-22T12:22:12;34.60;74.30
9049;DHT22;4559;47.252;9.592;2022-07-22T12:24:44;34.60;74.70
9049;DHT22;4559;47.252;9.592;2022-07-22T12:27:12;34.70;74.00
9049;DHT22;4559;47.252;9.592;2022-07-22T12:32:05;34.80;73.80
9049;DHT22;4559;47.252;9.592;2022-07-22T12:34:43;34.80;74.50
9049;DHT22;4559;47.252;9.592;2022-07-22T12:40:03;34.80;72.70
9049;DHT22;4559;47.252;9.592;2022-07-22T12:42:35;34.80;72.10
9049;DHT22;4559;47.252;9.592;2022-07-22T12:50:25;34.90;69.60
9049;DHT22;4559;47.252;9.592;2022-07-22T12:52:52;34.80;70.50
9049;DHT22;4559;47.252;9.592;2022-07-22T12:55:18;34.80;71.00
9049;DHT22;4559;47.252;9.592;2022-07-22T12:57:44;34.80;68.80
9049;DHT22;4559;47.252;9.592;2022-07-22T13:00:10;34.70;69.00
9049;DHT22;4559;47.252;9.592;2022-07-22T13:02:36;34.70;70.00
9049;DHT22;4559;47.252;9.592;2022-07-22T13:05:02;34.70;70.00
9049;DHT22;4559;47.252;9.592;2022-07-22T13:07:28;34.80;68.60
9049;DHT22;4559;47.252;9.592;2022-07-22T13:09:54;34.70;68.20
9049;DHT22;4559;47.252;9.592;2022-07-22T13:12:19;34.70;67.50
9049;DHT22;4559;47.252;9.592;2022-07-22T13:14:45;34.70;68.30
9049;DHT22;4559;47.252;9.592;2022-07-22T13:17:10;34.70;67.50
9049;DHT22;4559;47.252;9.592;2022-07-22T13:19:37;34.70;65.60
9049;DHT22;4559;47.252;9.592;2022-07-22T13:22:03;34.80;67.30
9049;DHT22;4559;47.252;9.592;2022-07-22T13:24:29;34.80;67.00
9049;DHT22;4559;47.252;9.592;2022-07-22T13:26:54;34.90;67.40
9049;DHT22;4559;47.252;9.592;2022-07-22T13:29:20;34.80;67.00
9049;DHT22;4559;47.252;9.592;2022-07-22T13:31:46;34.70;68.20
9049;DHT22;4559;47.252;9.592;2022-07-22T13:34:11;34.80;68.00
9049;DHT22;4559;47.252;9.592;2022-07-22T13:36:37;34.80;68.90
9049;DHT22;4559;47.252;9.592;2022-07-22T13:39:03;34.80;67.30
9049;DHT22;4559;47.252;9.592;2022-07-22T13:41:30;34.70;67.40
9049;DHT22;4559;47.252;9.592;2022-07-22T13:43:56;34.70;67.20
9049;DHT22;4559;47.252;9.592;2022-07-22T13:46:22;34.70;67.10
9049;DHT22;4559;47.252;9.592;2022-07-22T13:48:47;34.70;66.70
9049;DHT22;4559;47.252;9.592;2022-07-22T13:51:13;34.70;66.30
9049;DHT22;4559;47.252;9.592;2022-07-22T13:53:40;34.70;66.20
9049;DHT22;4559;47.252;9.592;2022-07-22T13:56:08;34.70;65.20
9049;DHT22;4559;47.252;9.592;2022-07-22T13:58:35;34.60;65.10
9049;DHT22;4559;47.252;9.592;2022-07-22T14:01:00;34.70;65.90
9049;DHT22;4559;47.252;9.592;2022-07-22T14:03:26;34.60;64.50
9049;DHT22;4559;47.252;9.592;2022-07-22T14:05:52;34.60;64.00
9049;DHT22;4559;47.252;9.592;2022-07-22T14:08:18;34.70;64.20
9049;DHT22;4559;47.252;9.592;2022-07-22T14:10:43;34.70;64.60
9049;DHT22;4559;47.252;9.592;2022-07-22T14:13:09;34.70;64.30
9049;DHT22;4559;47.252;9.592;2022-07-22T14:15:34;34.70;65.00
9049;DHT22;4559;47.252;9.592;2022-07-22T14:18:00;34.60;63.20
9049;DHT22;4559;47.252;9.592;2022-07-22T14:20:26;34.70;63.80
9049;DHT22;4559;47.252;9.592;2022-07-22T14:22:52;34.70;64.00
9049;DHT22;4559;47.252;9.592;2022-07-22T14:25:18;34.70;64.60
9049;DHT22;4559;47.252;9.592;2022-07-22T14:27:44;34.70;64.30
9049;DHT22;4559;47.252;9.592;2022-07-22T14:30:10;34.60;64.10
9049;DHT22;4559;47.252;9.592;2022-07-22T14:32:36;34.60;63.20
9049;DHT22;4559;47.252;9.592;2022-07-22T14:35:01;34.60;63.50
9049;DHT22;4559;47.252;9.592;2022-07-22T14:37:31;34.50;63.50
9049;DHT22;4559;47.252;9.592;2022-07-22T14:39:57;34.50;63.00
9049;DHT22;4559;47.252;9.592;2022-07-22T14:42:24;34.50;63.00
9049;DHT22;4559;47.252;9.592;2022-07-22T14:44:49;34.50;63.50
9049;DHT22;4559;47.252;9.592;2022-07-22T14:47:15;34.50;61.80
9049;DHT22;4559;47.252;9.592;2022-07-22T14:49:40;34.40;60.00
9049;DHT22;4559;47.252;9.592;2022-07-22T14:52:06;34.40;61.40
9049;DHT22;4559;47.252;9.592;2022-07-22T14:54:32;34.40;61.80
9049;DHT22;4559;47.252;9.592;2022-07-22T14:56:57;34.40;62.50
9049;DHT22;4559;47.252;9.592;2022-07-22T14:59:23;34.50;61.00
9049;DHT22;4559;47.252;9.592;2022-07-22T15:01:51;34.50;59.70
9049;DHT22;4559;47.252;9.592;2022-07-22T15:04:17;34.40;59.20
9049;DHT22;4559;47.252;9.592;2022-07-22T15:06:42;34.40;57.70
9049;DHT22;4559;47.252;9.592;2022-07-22T15:09:08;34.40;57.80
9049;DHT22;4559;47.252;9.592;2022-07-22T15:11:34;34.40;57.00
9049;DHT22;4559;47.252;9.592;2022-07-22T15:13:59;34.40;55.90
9049;DHT22;4559;47.252;9.592;2022-07-22T15:16:25;34.30;55.00
9049;DHT22;4559;47.252;9.592;2022-07-22T15:18:51;34.30;52.90
9049;DHT22;4559;47.252;9.592;2022-07-22T15:21:17;34.30;51.70
9049;DHT22;4559;47.252;9.592;2022-07-22T15:23:43;34.20;50.40
9049;DHT22;4559;47.252;9.592;2022-07-22T15:26:08;34.10;50.50
9049;DHT22;4559;47.252;9.592;2022-07-22T15:28:34;34.10;50.30
9049;DHT22;4559;47.252;9.592;2022-07-22T15:31:03;34.10;50.10
9049;DHT22;4559;47.252;9.592;2022-07-22T15:33:30;34.10;49.80
9049;DHT22;4559;47.252;9.592;2022-07-22T15:35:56;34.00;49.40
9049;DHT22;4559;47.252;9.592;2022-07-22T15:38:22;34.10;49.90
9049;DHT22;4559;47.252;9.592;2022-07-22T15:40:47;34.00;49.80
9049;DHT22;4559;47.252;9.592;2022-07-22T15:43:13;34.10;50.20
9049;DHT22;4559;47.252;9.592;2022-07-22T15:45:39;34.00;51.00
9049;DHT22;4559;47.252;9.592;2022-07-22T15:48:05;34.00;51.00
9049;DHT22;4559;47.252;9.592;2022-07-22T15:50:31;34.00;51.50
9049;DHT22;4559;47.252;9.592;2022-07-22T15:52:57;34.00;50.90
9049;DHT22;4559;47.252;9.592;2022-07-22T15:55:23;34.00;51.90
9049;DHT22;4559;47.252;9.592;2022-07-22T15:57:49;33.80;52.30
9049;DHT22;4559;47.252;9.592;2022-07-22T16:00:34;33.70;52.40
9049;DHT22;4559;47.252;9.592;2022-07-22T16:02:59;33.60;52.60
9049;DHT22;4559;47.252;9.592;2022-07-22T16:05:26;33.60;52.40
9049;DHT22;4559;47.252;9.592;2022-07-22T16:07:53;33.60;52.80
9049;DHT22;4559;47.252;9.592;2022-07-22T16:10:19;33.60;52.90
9049;DHT22;4559;47.252;9.592;2022-07-22T16:12:45;33.70;53.90
9049;DHT22;4559;47.252;9.592;2022-07-22T16:15:10;33.60;53.90
9049;DHT22;4559;47.252;9.592;2022-07-22T16:17:38;33.60;53.80
9049;DHT22;4559;47.252;9.592;2022-07-22T16:20:04;33.60;53.80
9049;DHT22;4559;47.252;9.592;2022-07-22T16:22:32;33.70;54.20
9049;DHT22;4559;47.252;9.592;2022-07-22T16:24:58;33.70;53.80
9049;DHT22;4559;47.252;9.592;2022-07-22T16:27:24;33.70;53.80